Time;durP1;ratioP1;P1;durP2;ratioP2;P2;SDS_P1;SDS_P2;PMS_P1;PMS_P2;Temp;Humidity;BMP_temperature;BMP_pressure;BME280_temperature;BME280_humidity;BME280_pressure;Samples;Min_cycle;Max_cycle;Signal;HPM_P1;HPM_P2
2021/12/22 00:01:26;;;;;;;3.15;2.20;;;22.30;32.40;;;;;;5071297;28;20387;-68
2021/12/22 00:03:53;;;;;;;3.30;2.20;;;22.30;32.30;;;;;;5053526;28;20398;-68
2021/12/22 00:06:21;;;;;;;2.92;2.15;;;22.30;32.30;;;;;;5052765;28;20395;-68
2021/12/22 00:08:47;;;;;;;3.30;2.10;;;22.30;32.10;;;;;;5053150;28;20936;-68
2021/12/22 00:11:13;;;;;;;2.95;2.17;;;22.30;32.10;;;;;;5070880;28;20601;-68
2021/12/22 00:13:38;;;;;;;2.93;2.07;;;22.30;32.30;;;;;;5052866;28;20423;-69
2021/12/22 00:16:05;;;;;;;3.10;2.10;;;22.30;32.10;;;;;;5071188;28;20431;-68
2021/12/22 00:18:31;;;;;;;3.38;2.30;;;22.30;32.10;;;;;;5071166;28;20380;-68
2021/12/22 00:20:57;;;;;;;2.38;2.00;;;22.20;32.10;;;;;;5070779;28;20395;-68
2021/12/22 00:23:23;;;;;;;2.93;2.47;;;22.20;32.00;;;;;;5071254;28;20385;-68
2021/12/22 00:25:49;;;;;;;3.00;2.30;;;22.20;32.00;;;;;;5071304;28;20381;-67
2021/12/22 00:28:14;;;;;;;3.60;2.20;;;22.20;32.10;;;;;;5053117;28;20903;-68
2021/12/22 00:30:41;;;;;;;3.38;2.38;;;22.20;32.10;;;;;;5053258;28;20403;-68
2021/12/22 00:33:09;;;;;;;3.00;2.20;;;22.20;32.10;;;;;;5070465;28;20387;-68
2021/12/22 00:35:44;;;;;;;3.20;2.25;;;22.20;32.20;;;;;;5053043;28;20447;-68
2021/12/22 00:38:18;;;;;;;2.75;2.28;;;22.20;32.20;;;;;;5071163;28;20399;-68
2021/12/22 00:40:46;;;;;;;3.00;2.30;;;22.20;32.10;;;;;;5052750;28;20460;-68
2021/12/22 00:43:13;;;;;;;3.00;2.13;;;22.10;32.00;;;;;;5070715;28;20457;-69
2021/12/22 00:45:39;;;;;;;2.65;2.13;;;22.20;32.10;;;;;;5053085;28;20399;-68
2021/12/22 00:48:07;;;;;;;3.55;2.15;;;22.10;32.00;;;;;;5053063;28;20388;-68
2021/12/22 00:50:35;;;;;;;2.70;2.20;;;22.10;32.10;;;;;;5070988;28;20875;-68
2021/12/22 00:53:01;;;;;;;3.00;2.28;;;22.10;32.00;;;;;;5052452;28;20811;-67
2021/12/22 00:55:27;;;;;;;3.40;2.28;;;22.00;32.10;;;;;;5070934;28;20501;-68
2021/12/22 00:57:53;;;;;;;2.70;2.00;;;22.10;32.10;;;;;;5052598;28;20888;-68
2021/12/22 01:00:21;;;;;;;2.78;2.10;;;22.10;32.10;;;;;;5070881;28;20395;-68
2021/12/22 01:02:47;;;;;;;3.13;2.13;;;22.00;32.00;;;;;;5070690;28;20868;-68
2021/12/22 01:05:15;;;;;;;2.60;2.15;;;22.00;31.90;;;;;;5070558;28;20809;-68
2021/12/22 01:07:43;;;;;;;3.67;2.35;;;22.00;32.00;;;;;;5070790;28;20388;-68
2021/12/22 01:10:09;;;;;;;3.25;2.10;;;22.00;32.00;;;;;;5070730;28;20392;-68
2021/12/22 01:12:35;;;;;;;2.60;2.10;;;22.00;32.00;;;;;;5070772;28;20392;-68
2021/12/22 01:15:02;;;;;;;2.72;2.22;;;22.00;31.90;;;;;;5052158;28;20408;-68
2021/12/22 01:17:35;;;;;;;3.55;2.10;;;22.00;31.90;;;;;;5055260;28;20549;-68
2021/12/22 01:20:08;;;;;;;2.78;2.00;;;22.00;31.90;;;;;;5074302;28;20479;-68
2021/12/22 01:22:48;;;;;;;3.00;2.00;;;22.00;31.90;;;;;;5074354;28;20465;-68
2021/12/22 01:25:21;;;;;;;3.00;2.00;;;21.90;31.80;;;;;;5056060;28;20404;-68
2021/12/22 01:27:47;;;;;;;2.80;1.88;;;21.90;31.80;;;;;;5073772;28;20470;-68
2021/12/22 01:30:20;;;;;;;3.30;2.05;;;21.90;31.90;;;;;;5055661;28;20848;-68
2021/12/22 01:32:46;;;;;;;2.43;1.83;;;21.90;31.90;;;;;;5055902;28;20468;-67
2021/12/22 01:35:15;;;;;;;2.92;2.20;;;21.90;31.80;;;;;;5073671;28;20411;-68
2021/12/22 01:37:41;;;;;;;3.15;2.00;;;21.90;31.80;;;;;;5056177;28;20388;-68
2021/12/22 01:40:08;;;;;;;2.37;1.90;;;21.90;31.70;;;;;;5055931;28;20396;-68
2021/12/22 01:42:34;;;;;;;2.90;2.00;;;21.90;31.70;;;;;;5055343;28;20781;-68
2021/12/22 01:45:28;;;;;;;2.47;1.80;;;21.90;31.70;;;;;;5073428;28;20394;-68
2021/12/22 01:50:41;;;;;;;2.63;1.92;;;21.90;31.70;;;;;;5073987;28;20487;-68
2021/12/22 01:53:34;;;;;;;2.60;1.95;;;21.90;31.70;;;;;;5055369;28;20473;-68
2021/12/22 01:58:43;;;;;;;2.97;1.92;;;21.90;31.70;;;;;;5073831;28;20386;-68
2021/12/22 02:01:10;;;;;;;2.38;1.80;;;21.90;31.70;;;;;;5073158;28;20518;-68
2021/12/22 02:03:38;;;;;;;2.58;2.05;;;21.80;31.70;;;;;;5073620;28;20423;-68
2021/12/22 02:06:05;;;;;;;2.90;2.10;;;21.80;31.70;;;;;;5073406;28;20493;-68
2021/12/22 02:08:35;;;;;;;3.30;1.95;;;21.80;31.70;;;;;;5073572;28;20407;-67
2021/12/22 02:11:01;;;;;;;2.97;1.80;;;21.80;31.70;;;;;;5072900;28;20872;-68
2021/12/22 02:13:35;;;;;;;2.35;1.85;;;21.80;31.70;;;;;;5073339;28;20491;-68
2021/12/22 02:16:07;;;;;;;2.83;1.75;;;21.80;31.70;;;;;;5073191;28;20502;-68
2021/12/22 02:18:35;;;;;;;3.25;1.98;;;21.80;31.70;;;;;;5073313;28;20395;-68
2021/12/22 02:21:01;;;;;;;2.80;2.00;;;21.80;31.60;;;;;;5054631;28;20914;-68
2021/12/22 02:23:26;;;;;;;2.60;1.80;;;21.80;31.60;;;;;;5055225;28;20971;-68
2021/12/22 02:25:57;;;;;;;3.03;1.80;;;21.80;31.60;;;;;;5073118;28;20479;-68
2021/12/22 02:28:28;;;;;;;3.10;1.92;;;21.80;31.60;;;;;;5072385;28;20737;-68
2021/12/22 02:30:54;;;;;;;2.38;1.80;;;21.80;31.50;;;;;;5072834;28;20396;-68
2021/12/22 02:33:23;;;;;;;2.92;1.80;;;21.80;32.10;;;;;;5072830;28;20419;-68
2021/12/22 02:36:07;;;;;;;2.10;1.88;;;21.80;31.50;;;;;;5072870;28;20411;-68
2021/12/22 02:38:35;;;;;;;2.80;1.90;;;21.80;31.60;;;;;;5072944;28;20375;-68
2021/12/22 02:41:02;;;;;;;3.47;1.90;;;21.80;31.60;;;;;;5072408;28;20427;-68
2021/12/22 02:43:32;;;;;;;2.72;1.88;;;21.80;31.60;;;;;;5072174;28;20404;-68
2021/12/22 02:45:59;;;;;;;2.00;1.58;;;21.80;31.50;;;;;;5054572;28;20402;-68
2021/12/22 02:48:32;;;;;;;2.30;1.75;;;21.70;31.50;;;;;;5054830;28;20411;-68
2021/12/22 02:51:01;;;;;;;2.42;1.75;;;21.70;31.50;;;;;;5072459;28;20750;-68
2021/12/22 02:54:21;;;;;;;2.58;1.60;;;21.70;31.50;;;;;;5054703;28;20498;-68
2021/12/22 02:59:01;;;;;;;2.75;1.95;;;21.70;31.50;;;;;;5072186;28;20480;-68
2021/12/22 03:04:10;;;;;;;2.90;1.80;;;21.70;31.40;;;;;;5072156;28;20383;-68
2021/12/22 03:06:48;;;;;;;2.30;1.70;;;21.70;31.40;;;;;;5054304;28;20438;-68
2021/12/22 03:09:25;;;;;;;1.98;1.40;;;21.70;31.30;;;;;;5071728;28;20429;-68
2021/12/22 03:11:54;;;;;;;2.90;1.60;;;21.70;31.30;;;;;;5072255;28;20400;-67
2021/12/22 03:14:21;;;;;;;2.58;1.60;;;21.70;31.30;;;;;;5072099;28;20416;-68
2021/12/22 03:16:47;;;;;;;2.20;1.60;;;21.70;31.90;;;;;;5054263;28;20427;-68
2021/12/22 03:19:16;;;;;;;2.00;1.50;;;21.70;31.30;;;;;;5071202;28;20396;-68
2021/12/22 03:21:43;;;;;;;2.28;1.70;;;21.70;31.30;;;;;;5072106;28;20391;-68
2021/12/22 03:24:11;;;;;;;2.58;1.80;;;21.70;31.20;;;;;;5071924;28;20396;-68
2021/12/22 03:26:41;;;;;;;2.10;1.67;;;21.70;31.30;;;;;;5071742;28;20388;-68
2021/12/22 03:29:18;;;;;;;2.40;1.60;;;21.70;31.30;;;;;;5071485;28;20399;-68
2021/12/22 03:31:45;;;;;;;2.08;1.60;;;21.60;31.20;;;;;;5071846;28;20376;-68
2021/12/22 03:34:11;;;;;;;2.03;1.50;;;21.60;31.20;;;;;;5071763;28;20407;-68
2021/12/22 03:36:37;;;;;;;2.45;1.83;;;21.60;31.20;;;;;;5053884;28;21074;-68
2021/12/22 03:39:05;;;;;;;2.20;1.60;;;21.60;31.10;;;;;;5071111;28;20882;-68
2021/12/22 03:41:34;;;;;;;2.47;1.40;;;21.60;31.20;;;;;;5071139;28;20400;-68
2021/12/22 03:44:01;;;;;;;2.30;1.60;;;21.60;31.10;;;;;;5071712;28;20396;-68
2021/12/22 03:46:26;;;;;;;2.38;1.70;;;21.60;31.10;;;;;;5071753;28;20403;-68
2021/12/22 03:48:52;;;;;;;2.70;1.57;;;21.60;31.20;;;;;;5053474;28;20392;-68
2021/12/22 03:51:18;;;;;;;2.38;1.67;;;21.50;31.10;;;;;;5053492;28;20404;-68
2021/12/22 03:53:43;;;;;;;2.50;1.73;;;21.50;31.10;;;;;;5071486;28;20392;-68
2021/12/22 03:56:09;;;;;;;2.58;1.70;;;21.50;31.10;;;;;;5071512;28;20403;-68
2021/12/22 03:58:35;;;;;;;2.23;1.50;;;21.50;31.00;;;;;;5053241;28;20464;-68
2021/12/22 04:01:00;;;;;;;2.17;1.60;;;21.60;31.00;;;;;;5052608;28;20436;-68
2021/12/22 04:03:30;;;;;;;2.30;1.57;;;21.50;31.00;;;;;;5053179;28;20433;-68
2021/12/22 04:05:56;;;;;;;2.47;1.50;;;21.50;31.00;;;;;;5071351;28;20395;-67
2021/12/22 04:08:22;;;;;;;3.22;1.60;;;21.50;30.80;;;;;;5071503;28;20396;-68
2021/12/22 04:10:50;;;;;;;3.50;1.70;;;21.50;30.80;;;;;;5071325;28;20392;-68
2021/12/22 04:13:17;;;;;;;3.38;1.70;;;21.70;30.70;;;;;;5070937;28;20429;-68
2021/12/22 04:15:44;;;;;;;3.15;1.90;;;21.70;31.00;;;;;;5071242;28;20455;-68
2021/12/22 04:18:10;;;;;;;3.47;2.13;;;21.70;31.10;;;;;;5071262;28;20384;-68
2021/12/22 04:20:36;;;;;;;4.00;2.45;;;21.60;31.70;;;;;;5071334;28;20456;-68
2021/12/22 04:23:02;;;;;;;3.72;2.50;;;21.60;32.80;;;;;;5070812;28;20375;-68
2021/12/22 04:25:29;;;;;;;5.78;2.30;;;21.50;32.60;;;;;;5070896;28;20384;-69
2021/12/22 04:28:02;;;;;;;5.32;2.10;;;21.50;33.30;;;;;;5049367;28;20392;-69
2021/12/22 04:30:28;;;;;;;4.80;2.08;;;21.60;33.30;;;;;;5080788;28;20394;-69
2021/12/22 04:32:54;;;;;;;4.47;1.87;;;21.60;33.60;;;;;;5091177;28;20449;-69
2021/12/22 04:35:20;;;;;;;3.55;2.10;;;21.50;32.10;;;;;;5090954;28;20497;-69
2021/12/22 04:37:46;;;;;;;3.83;2.00;;;21.50;32.40;;;;;;5073222;28;20390;-69
2021/12/22 04:40:12;;;;;;;4.15;2.20;;;21.40;32.60;;;;;;5091279;28;20382;-68
2021/12/22 04:42:38;;;;;;;3.30;1.95;;;21.40;33.10;;;;;;5091127;28;20397;-68
2021/12/22 04:45:06;;;;;;;6.33;2.20;;;21.50;34.00;;;;;;5072852;28;20401;-68
2021/12/22 04:47:33;;;;;;;4.33;1.87;;;21.50;34.30;;;;;;5091058;28;20377;-68
2021/12/22 04:50:01;;;;;;;4.43;2.00;;;21.50;32.70;;;;;;5091102;28;20397;-68
2021/12/22 04:52:34;;;;;;;5.50;2.00;;;21.50;32.70;;;;;;5094071;28;20380;-68
2021/12/22 04:55:04;;;;;;;5.85;1.80;;;21.40;32.60;;;;;;5094736;28;20425;-68
2021/12/22 04:57:33;;;;;;;3.47;1.60;;;21.30;32.50;;;;;;5094888;28;20917;-68
2021/12/22 05:00:00;;;;;;;3.97;1.98;;;21.30;32.50;;;;;;5095811;28;20439;-68
2021/12/22 05:02:27;;;;;;;2.85;1.60;;;21.30;32.30;;;;;;5096188;28;20427;-67
2021/12/22 05:04:53;;;;;;;3.22;1.80;;;21.20;31.90;;;;;;5094758;28;20440;-68
2021/12/22 05:07:18;;;;;;;2.70;1.70;;;21.20;31.80;;;;;;5076224;28;20390;-68
2021/12/22 05:09:44;;;;;;;3.07;2.03;;;21.20;32.10;;;;;;5076684;28;20485;-68
2021/12/22 05:12:10;;;;;;;3.35;1.90;;;21.30;32.20;;;;;;5094614;28;20828;-68
2021/12/22 05:14:35;;;;;;;2.80;1.67;;;21.30;32.10;;;;;;5094075;28;20497;-68
2021/12/22 05:17:04;;;;;;;5.68;1.70;;;21.30;32.50;;;;;;5093978;28;20462;-68
2021/12/22 05:19:30;;;;;;;2.45;1.63;;;21.30;33.00;;;;;;5094363;28;20382;-68
2021/12/22 05:21:56;;;;;;;2.67;1.60;;;21.40;32.50;;;;;;5094544;28;20389;-69
2021/12/22 05:24:23;;;;;;;2.85;1.60;;;21.40;32.30;;;;;;5094503;28;20473;-68
2021/12/22 05:26:49;;;;;;;3.28;1.45;;;21.40;31.90;;;;;;5094525;28;20382;-68
2021/12/22 05:29:16;;;;;;;3.43;1.53;;;21.40;31.80;;;;;;5093900;28;20390;-68
2021/12/22 05:31:41;;;;;;;2.80;1.70;;;21.40;31.70;;;;;;5078767;28;20437;-69
2021/12/22 05:34:07;;;;;;;3.63;1.88;;;21.40;31.70;;;;;;5073889;28;20845;-68
2021/12/22 05:36:33;;;;;;;3.28;1.63;;;21.40;31.70;;;;;;5074199;28;20392;-68
2021/12/22 05:38:59;;;;;;;2.70;1.70;;;21.40;31.60;;;;;;5073929;28;20436;-68
2021/12/22 05:41:25;;;;;;;3.10;1.70;;;21.40;31.50;;;;;;5055811;28;20910;-68
2021/12/22 05:43:51;;;;;;;3.15;1.60;;;21.30;31.30;;;;;;5055836;28;20500;-68
2021/12/22 05:46:17;;;;;;;2.70;1.60;;;21.30;31.20;;;;;;5073759;28;20445;-68
2021/12/22 05:48:48;;;;;;;2.72;1.65;;;21.30;31.30;;;;;;5073976;28;20384;-68
2021/12/22 05:51:14;;;;;;;3.35;1.70;;;21.30;31.00;;;;;;5055424;28;20494;-69
2021/12/22 05:53:40;;;;;;;2.43;1.60;;;21.30;30.90;;;;;;5073897;28;20608;-68
2021/12/22 05:56:05;;;;;;;2.75;1.60;;;21.30;30.90;;;;;;5055825;28;20415;-68
2021/12/22 05:58:31;;;;;;;3.27;1.70;;;21.30;31.00;;;;;;5073746;28;20530;-68
2021/12/22 06:00:57;;;;;;;2.88;1.63;;;21.30;31.00;;;;;;5070944;28;20401;-68
2021/12/22 06:03:23;;;;;;;2.27;1.77;;;21.30;31.00;;;;;;5074948;28;20933;-69
2021/12/22 06:05:49;;;;;;;2.38;1.67;;;21.30;30.90;;;;;;5078330;28;20392;-68
2021/12/22 06:08:14;;;;;;;2.45;1.50;;;21.30;30.90;;;;;;5083159;28;20390;-68
2021/12/22 06:10:40;;;;;;;2.97;1.90;;;21.30;30.80;;;;;;5079374;28;20437;-68
2021/12/22 06:13:07;;;;;;;3.28;1.50;;;21.20;30.90;;;;;;5087724;28;20391;-68
2021/12/22 06:15:34;;;;;;;2.63;1.90;;;21.30;30.90;;;;;;5093305;28;20422;-68
2021/12/22 06:18:01;;;;;;;3.08;2.00;;;21.30;30.70;;;;;;5093478;28;20850;-68
2021/12/22 06:20:28;;;;;;;3.90;1.90;;;21.20;30.70;;;;;;5079967;28;20396;-69
2021/12/22 06:22:54;;;;;;;3.63;2.00;;;21.20;30.60;;;;;;5073055;28;20773;-70
2021/12/22 06:25:21;;;;;;;8.35;2.28;;;21.20;31.00;;;;;;5070484;28;20395;-70
2021/12/22 06:27:47;;;;;;;7.22;2.17;;;21.30;31.30;;;;;;5072761;28;20387;-69
2021/12/22 06:30:12;;;;;;;9.10;2.00;;;21.30;31.20;;;;;;5050634;28;20807;-69
2021/12/22 06:32:38;;;;;;;5.35;2.13;;;21.40;32.10;;;;;;5052539;28;20922;-69
2021/12/22 06:35:05;;;;;;;6.70;2.00;;;21.50;31.20;;;;;;5051927;28;20482;-69
2021/12/22 06:37:30;;;;;;;8.10;2.20;;;21.50;31.70;;;;;;5051853;28;20392;-69
2021/12/22 06:39:56;;;;;;;3.07;1.63;;;21.50;31.60;;;;;;5052065;28;20393;-69
2021/12/22 06:42:23;;;;;;;6.75;2.10;;;21.50;31.60;;;;;;5052460;28;20393;-70
2021/12/22 06:44:49;;;;;;;6.82;1.80;;;21.50;32.10;;;;;;5052138;28;20393;-70
2021/12/22 06:47:15;;;;;;;4.82;1.90;;;21.50;31.90;;;;;;5051151;28;20400;-67
2021/12/22 06:49:41;;;;;;;7.60;2.27;;;21.50;32.30;;;;;;5057920;28;20426;-68
2021/12/22 06:52:07;;;;;;;3.92;1.95;;;21.50;32.70;;;;;;5072007;28;20740;-69
2021/12/22 06:54:33;;;;;;;7.40;1.80;;;21.40;32.80;;;;;;5070125;28;20406;-68
2021/12/22 06:56:58;;;;;;;4.10;2.00;;;21.40;32.60;;;;;;5071523;28;20432;-68
2021/12/22 06:59:24;;;;;;;3.30;1.87;;;21.40;31.90;;;;;;5052904;28;20391;-69
2021/12/22 07:01:51;;;;;;;3.83;2.00;;;21.40;31.60;;;;;;5053736;28;20406;-69
2021/12/22 07:04:18;;;;;;;4.35;2.00;;;21.40;31.60;;;;;;5044321;28;20419;-69
2021/12/22 07:06:46;;;;;;;4.60;2.03;;;21.40;31.40;;;;;;5060127;28;20389;-68
2021/12/22 07:09:12;;;;;;;4.20;1.83;;;21.30;31.20;;;;;;5053828;28;20453;-68
2021/12/22 07:11:38;;;;;;;4.25;1.75;;;21.40;30.90;;;;;;5051692;28;20389;-69
2021/12/22 07:14:07;;;;;;;3.47;1.88;;;21.40;30.90;;;;;;5058738;28;20401;-68
2021/12/22 07:16:33;;;;;;;5.35;1.80;;;21.40;30.90;;;;;;5062208;28;20876;-68
2021/12/22 07:18:59;;;;;;;3.60;1.75;;;21.40;31.30;;;;;;5070583;28;20383;-68
2021/12/22 07:21:25;;;;;;;3.00;1.60;;;21.40;31.10;;;;;;5061839;28;20397;-68
2021/12/22 07:23:52;;;;;;;2.55;1.88;;;21.40;30.80;;;;;;5070148;28;20387;-68
2021/12/22 07:26:17;;;;;;;3.80;1.83;;;21.40;30.80;;;;;;5070281;28;20387;-69
2021/12/22 07:28:45;;;;;;;3.00;1.83;;;21.40;30.70;;;;;;5069984;28;20392;-69
2021/12/22 07:31:12;;;;;;;3.00;1.80;;;21.40;30.60;;;;;;5060743;28;20399;-69
2021/12/22 07:33:38;;;;;;;4.78;1.80;;;21.40;30.40;;;;;;5051545;28;20473;-68
2021/12/22 07:36:05;;;;;;;5.00;1.90;;;21.40;30.20;;;;;;5051258;28;20440;-69
2021/12/22 07:38:42;;;;;;;3.60;1.70;;;21.40;30.50;;;;;;5051376;28;20410;-69
2021/12/22 07:41:09;;;;;;;3.30;2.07;;;21.40;30.50;;;;;;5051022;28;20456;-68
2021/12/22 07:43:36;;;;;;;3.92;1.70;;;21.30;30.50;;;;;;5033027;28;20405;-68
2021/12/22 07:46:03;;;;;;;4.67;2.00;;;21.30;30.50;;;;;;5051283;28;20412;-69
2021/12/22 07:48:29;;;;;;;5.30;1.83;;;21.30;30.40;;;;;;5051090;28;20389;-69
2021/12/22 07:50:55;;;;;;;3.15;1.90;;;21.30;30.60;;;;;;5051030;28;20393;-69
2021/12/22 07:53:21;;;;;;;4.83;1.83;;;21.30;30.40;;;;;;5032840;28;20430;-70
2021/12/22 07:55:48;;;;;;;3.25;1.70;;;21.30;30.50;;;;;;5050935;28;20417;-70
2021/12/22 07:58:14;;;;;;;4.50;1.80;;;21.30;30.50;;;;;;5051032;28;20389;-69
2021/12/22 08:00:40;;;;;;;3.20;1.60;;;21.30;30.30;;;;;;5050728;28;20451;-69
2021/12/22 08:03:05;;;;;;;2.83;1.73;;;21.30;30.30;;;;;;5049851;28;20807;-69
2021/12/22 08:05:32;;;;;;;3.08;1.52;;;21.30;30.00;;;;;;5050581;28;20421;-69
2021/12/22 08:07:59;;;;;;;2.92;1.60;;;21.30;30.00;;;;;;5050782;28;20388;-69
2021/12/22 08:10:25;;;;;;;4.38;1.77;;;21.30;30.00;;;;;;5050961;28;20393;-68
2021/12/22 08:12:50;;;;;;;4.07;1.80;;;21.30;29.90;;;;;;5050816;28;20390;-69
2021/12/22 08:15:16;;;;;;;2.50;1.60;;;21.40;30.00;;;;;;5032552;28;20904;-69
2021/12/22 08:17:42;;;;;;;3.05;1.77;;;21.30;29.80;;;;;;5050864;28;20393;-68
2021/12/22 08:20:09;;;;;;;3.40;1.85;;;21.30;29.70;;;;;;5050706;28;20475;-70
2021/12/22 08:22:35;;;;;;;3.40;1.70;;;21.40;29.80;;;;;;5063349;28;20388;-70
2021/12/22 08:25:02;;;;;;;3.25;1.83;;;21.40;29.80;;;;;;5070754;28;20805;-69
2021/12/22 08:27:27;;;;;;;2.80;1.60;;;21.40;29.70;;;;;;5073282;28;20577;-69
2021/12/22 08:29:53;;;;;;;2.80;1.77;;;21.40;29.80;;;;;;5075132;28;20764;-69
2021/12/22 08:32:19;;;;;;;2.83;1.88;;;21.40;29.70;;;;;;5057199;28;20390;-69
2021/12/22 08:34:47;;;;;;;2.77;1.70;;;21.40;29.80;;;;;;5074673;28;20779;-69
2021/12/22 08:39:58;;;;;;;3.58;2.00;;;21.40;29.80;;;;;;5074936;28;20521;-69
2021/12/22 08:42:25;;;;;;;3.42;1.88;;;21.40;29.70;;;;;;5056532;28;20411;-69
2021/12/22 08:44:52;;;;;;;2.97;1.77;;;21.40;29.60;;;;;;5074638;28;20395;-70
2021/12/22 08:47:19;;;;;;;3.13;2.00;;;21.40;29.70;;;;;;5074120;28;20383;-69
2021/12/22 08:49:45;;;;;;;2.90;1.75;;;21.40;29.60;;;;;;5074781;28;20383;-71
2021/12/22 08:52:11;;;;;;;2.72;1.70;;;21.40;29.70;;;;;;5074493;28;20387;-69
2021/12/22 08:54:37;;;;;;;3.85;2.17;;;21.40;29.60;;;;;;5073972;28;20403;-69
2021/12/22 08:57:03;;;;;;;2.78;1.80;;;21.40;29.60;;;;;;5056368;28;20396;-69
2021/12/22 08:59:30;;;;;;;3.10;1.88;;;21.40;29.60;;;;;;5056018;28;20725;-69
2021/12/22 09:01:56;;;;;;;2.60;1.60;;;21.30;29.70;;;;;;5056199;28;20508;-69
2021/12/22 09:04:22;;;;;;;3.42;1.70;;;21.30;29.80;;;;;;5074348;28;20384;-69
2021/12/22 09:06:49;;;;;;;2.83;1.70;;;21.20;29.80;;;;;;5074108;28;20394;-69
2021/12/22 09:09:16;;;;;;;2.10;1.50;;;21.10;29.40;;;;;;5073762;28;20479;-70
2021/12/22 09:11:42;;;;;;;3.87;2.03;;;21.20;29.70;;;;;;5056368;28;20948;-69
2021/12/22 09:14:09;;;;;;;2.78;1.67;;;21.30;29.80;;;;;;5067272;28;20416;-71
2021/12/22 09:16:36;;;;;;;2.80;1.60;;;21.30;29.80;;;;;;5069588;28;20400;-70
2021/12/22 09:19:03;;;;;;;3.07;1.60;;;21.30;29.80;;;;;;5055949;28;20504;-70
2021/12/22 09:21:28;;;;;;;3.03;1.60;;;21.40;29.70;;;;;;5073062;28;20741;-70
2021/12/22 09:23:54;;;;;;;2.22;1.58;;;21.40;29.70;;;;;;5057773;28;20449;-70
2021/12/22 09:26:20;;;;;;;2.83;1.70;;;21.40;29.60;;;;;;5074758;28;20411;-71
2021/12/22 09:28:45;;;;;;;3.10;1.70;;;21.40;29.60;;;;;;5056152;28;20399;-71
2021/12/22 09:31:12;;;;;;;2.90;1.83;;;21.40;29.60;;;;;;5073462;28;20474;-71
2021/12/22 09:33:39;;;;;;;2.90;1.67;;;21.40;29.50;;;;;;5073412;28;20872;-70
2021/12/22 09:36:08;;;;;;;2.45;1.40;;;21.40;29.60;;;;;;5073961;28;20456;-71
2021/12/22 09:38:34;;;;;;;2.28;1.60;;;21.30;29.50;;;;;;5073824;28;20412;-71
2021/12/22 09:41:02;;;;;;;2.53;1.83;;;21.30;29.40;;;;;;5073312;28;20395;-71
2021/12/22 09:43:28;;;;;;;2.13;1.40;;;21.30;29.60;;;;;;5058676;28;20458;-69
2021/12/22 09:45:59;;;;;;;2.58;1.60;;;21.30;29.50;;;;;;5035484;28;20949;-71
2021/12/22 09:48:35;;;;;;;2.60;1.60;;;21.30;29.40;;;;;;5053124;28;20471;-71
2021/12/22 09:53:36;;;;;;;3.03;1.73;;;21.30;29.20;;;;;;5053095;28;20420;-71
2021/12/22 09:56:02;;;;;;;2.50;1.60;;;21.40;29.50;;;;;;5052222;28;20467;-71
2021/12/22 09:58:28;;;;;;;2.40;1.58;;;21.30;29.60;;;;;;5053649;28;20393;-71
2021/12/22 10:00:55;;;;;;;2.17;1.57;;;21.30;29.60;;;;;;5036022;28;20455;-71
2021/12/22 10:03:22;;;;;;;2.95;1.80;;;21.40;29.60;;;;;;5052961;28;20392;-70
2021/12/22 10:05:48;;;;;;;3.25;1.60;;;21.40;29.60;;;;;;5051722;28;20398;-71
2021/12/22 10:08:20;;;;;;;3.10;1.65;;;21.50;29.60;;;;;;5053652;28;20393;-72
2021/12/22 10:10:49;;;;;;;4.97;1.90;;;21.50;29.50;;;;;;5055759;28;20400;-72
2021/12/22 10:13:26;;;;;;;6.60;2.17;;;21.50;29.50;;;;;;5053251;28;20888;-72
2021/12/22 10:15:52;;;;;;;18.57;10.03;;;21.60;29.70;;;;;;5045046;28;20485;-72
2021/12/22 10:18:36;;;;;;;10.38;5.30;;;21.60;30.00;;;;;;5028353;28;20394;-72
2021/12/22 10:21:15;;;;;;;9.27;4.32;;;21.70;30.90;;;;;;5042838;28;20389;-72
2021/12/22 10:23:44;;;;;;;9.35;5.47;;;21.70;30.90;;;;;;5027924;28;20920;-73
2021/12/22 10:26:16;;;;;;;8.95;4.85;;;21.80;30.70;;;;;;5051870;28;20443;-71
2021/12/22 10:28:54;;;;;;;7.20;4.00;;;21.80;30.40;;;;;;5049826;28;20413;-72
2021/12/22 10:31:42;;;;;;;6.65;3.78;;;21.80;30.00;;;;;;5035052;28;20394;-72
2021/12/22 10:34:14;;;;;;;6.67;3.40;;;21.80;30.00;;;;;;5048920;28;20882;-70
2021/12/22 10:36:47;;;;;;;7.10;3.50;;;21.80;29.90;;;;;;5052467;28;20449;-72
2021/12/22 10:39:29;;;;;;;7.60;3.33;;;21.80;30.00;;;;;;5052444;28;20425;-70
2021/12/22 10:42:10;;;;;;;6.15;2.97;;;21.80;30.00;;;;;;5050651;28;20405;-71
2021/12/22 10:44:41;;;;;;;6.15;2.75;;;21.90;30.00;;;;;;5051722;28;20397;-70
2021/12/22 10:47:22;;;;;;;6.10;2.80;;;22.00;30.00;;;;;;5049538;28;20443;-70
2021/12/22 10:50:02;;;;;;;5.20;2.60;;;22.00;29.90;;;;;;5047053;28;20954;-70
2021/12/22 10:52:30;;;;;;;5.35;2.70;;;22.00;29.90;;;;;;5052729;28;20401;-70
2021/12/22 10:55:22;;;;;;;4.57;2.33;;;22.00;29.90;;;;;;5034582;28;20471;-69
2021/12/22 10:57:48;;;;;;;4.75;2.40;;;21.90;29.70;;;;;;5038516;28;20778;-70
2021/12/22 11:00:15;;;;;;;4.60;2.40;;;21.90;29.50;;;;;;5051132;28;20416;-69
2021/12/22 11:02:48;;;;;;;4.03;2.35;;;21.90;29.70;;;;;;5035146;28;20389;-69
2021/12/22 11:05:28;;;;;;;4.40;2.25;;;21.90;29.60;;;;;;5052225;28;20762;-68
2021/12/22 11:07:54;;;;;;;4.13;2.20;;;21.80;29.70;;;;;;5033734;28;20386;-68
2021/12/22 11:10:24;;;;;;;3.75;2.05;;;21.80;29.50;;;;;;5052140;28;20396;-68
2021/12/22 11:12:59;;;;;;;3.83;1.75;;;21.80;29.60;;;;;;5051858;28;20393;-68
2021/12/22 11:15:26;;;;;;;3.95;2.20;;;21.80;29.70;;;;;;5051242;28;20445;-68
2021/12/22 11:17:52;;;;;;;4.30;2.20;;;21.80;29.60;;;;;;5051710;28;20439;-68
2021/12/22 11:20:22;;;;;;;4.40;1.95;;;21.90;29.50;;;;;;5051734;28;20382;-69
2021/12/22 11:23:00;;;;;;;3.33;1.70;;;21.90;29.50;;;;;;5051711;28;20476;-69
2021/12/22 11:25:26;;;;;;;3.20;1.90;;;21.90;29.60;;;;;;5051188;28;21007;-68
2021/12/22 11:27:53;;;;;;;3.70;1.73;;;21.90;29.60;;;;;;5051473;28;20480;-69
2021/12/22 11:30:20;;;;;;;4.70;2.08;;;21.90;29.40;;;;;;5052115;28;20393;-69
2021/12/22 11:32:47;;;;;;;5.55;1.90;;;21.90;30.20;;;;;;5051530;28;20381;-69
2021/12/22 11:35:14;;;;;;;5.18;1.83;;;22.10;29.80;;;;;;5051224;28;20452;-69
2021/12/22 11:37:40;;;;;;;6.25;1.80;;;22.30;29.50;;;;;;5050735;28;20450;-69
2021/12/22 11:40:09;;;;;;;4.20;1.63;;;22.40;29.50;;;;;;5050993;28;20393;-67
2021/12/22 11:42:40;;;;;;;3.47;1.80;;;22.50;29.30;;;;;;5060474;28;20407;-67
2021/12/22 11:45:09;;;;;;;2.83;1.90;;;22.50;29.10;;;;;;5071425;28;21095;-68
2021/12/22 11:47:40;;;;;;;4.65;1.98;;;22.60;29.00;;;;;;5071311;28;20395;-69
2021/12/22 11:50:13;;;;;;;5.93;2.00;;;22.70;28.90;;;;;;5053332;28;20400;-69
2021/12/22 11:52:45;;;;;;;3.85;1.75;;;22.70;29.00;;;;;;5052896;28;20387;-69
2021/12/22 11:55:20;;;;;;;3.42;1.50;;;22.80;28.90;;;;;;5052742;28;20415;-69
2021/12/22 11:57:50;;;;;;;3.33;1.73;;;22.80;29.00;;;;;;5071444;28;20372;-69
2021/12/22 12:00:24;;;;;;;3.20;1.50;;;22.90;28.90;;;;;;5070904;28;20560;-69
2021/12/22 12:02:51;;;;;;;7.38;1.67;;;23.00;29.20;;;;;;5070613;28;20878;-69
2021/12/22 12:05:19;;;;;;;5.90;1.80;;;23.00;28.80;;;;;;5071342;28;20463;-69
2021/12/22 12:07:51;;;;;;;6.78;1.60;;;23.00;28.50;;;;;;5070599;28;20482;-69
2021/12/22 12:10:39;;;;;;;6.07;2.05;;;23.10;28.50;;;;;;5070977;28;20521;-69
2021/12/22 12:13:17;;;;;;;6.35;2.08;;;23.20;28.60;;;;;;5070811;28;20391;-69
2021/12/22 12:21:56;;;;;;;6.90;1.83;;;23.30;29.10;;;;;;5070430;28;20424;-69
2021/12/22 12:24:35;;;;;;;6.90;1.85;;;23.40;29.10;;;;;;5070680;28;20433;-69
2021/12/22 12:27:35;;;;;;;5.07;1.58;;;23.50;29.30;;;;;;5070854;28;20372;-70
2021/12/22 12:30:10;;;;;;;4.80;1.42;;;23.60;29.30;;;;;;5070666;28;20392;-69
2021/12/22 12:32:50;;;;;;;5.85;1.60;;;23.60;29.20;;;;;;5070781;28;20460;-69
2021/12/22 12:35:26;;;;;;;5.55;1.90;;;23.70;29.30;;;;;;5070520;28;20415;-69
2021/12/22 12:38:18;;;;;;;3.60;1.63;;;23.70;29.40;;;;;;5052422;28;20769;-69
2021/12/22 12:40:57;;;;;;;10.82;1.90;;;23.80;29.40;;;;;;5070531;28;20445;-69
2021/12/22 12:43:53;;;;;;;5.93;1.77;;;23.90;29.50;;;;;;5070310;28;20431;-69
2021/12/22 12:46:24;;;;;;;3.28;1.38;;;23.90;29.20;;;;;;5070750;28;20399;-69
2021/12/22 12:49:05;;;;;;;4.40;1.50;;;23.90;29.40;;;;;;5053166;28;20392;-70
2021/12/22 12:51:41;;;;;;;2.50;1.27;;;24.00;29.30;;;;;;5070156;28;20376;-69
2021/12/22 12:54:33;;;;;;;6.05;1.50;;;24.00;29.20;;;;;;5070260;28;20759;-69
2021/12/22 12:57:18;;;;;;;2.90;1.38;;;24.00;29.60;;;;;;5059883;28;20380;-70
2021/12/22 12:59:50;;;;;;;6.50;1.60;;;24.00;29.30;;;;;;5070443;28;20863;-69
2021/12/22 13:02:24;;;;;;;4.35;1.42;;;24.10;29.70;;;;;;5052637;28;20874;-69
2021/12/22 13:04:55;;;;;;;3.38;1.40;;;24.20;29.70;;;;;;5052328;28;20392;-69
2021/12/22 13:07:21;;;;;;;6.30;1.40;;;24.20;29.20;;;;;;5066921;28;20474;-70
2021/12/22 13:10:12;;;;;;;3.28;1.40;;;24.30;29.50;;;;;;5061117;28;20568;-69
2021/12/22 13:17:59;;;;;;;4.43;1.42;;;24.50;29.20;;;;;;5071585;28;20446;-70
2021/12/22 13:20:38;;;;;;;2.70;1.00;;;24.50;29.30;;;;;;5070792;28;20853;-71
2021/12/22 13:23:05;;;;;;;4.15;1.20;;;24.60;29.10;;;;;;5053617;28;20847;-69